Time;durP1;ratioP1;P1;durP2;ratioP2;P2;SDS_P1;SDS_P2;PMS_P1;PMS_P2;Temp;Humidity;BMP_temperature;BMP_pressure;BME280_temperature;BME280_humidity;BME280_pressure;Samples;Min_cycle;Max_cycle;Signal;HPM_P1;HPM_P2
2023/09/17 00:02:05;;;;;;;9.57;7.95;;;;;;;22.03;51.82;99719.69;4931990;29;20070;-75
2023/09/17 00:04:32;;;;;;;11.57;8.07;;;;;;;22.00;51.87;99718.16;4931974;29;20058;-74
2023/09/17 00:06:58;;;;;;;9.95;8.45;;;;;;;21.98;51.82;99726.38;4933385;29;20083;-76
2023/09/17 00:09:25;;;;;;;9.55;8.55;;;;;;;21.97;52.11;99726.53;4933270;29;20142;-79
2023/09/17 00:11:51;;;;;;;12.98;9.57;;;;;;;21.94;51.98;99725.00;4932889;29;20546;-75
2023/09/17 00:14:18;;;;;;;13.35;8.70;;;;;;;21.92;51.92;99729.72;4932618;29;20167;-74
2023/09/17 00:16:46;;;;;;;11.23;8.60;;;;;;;21.87;51.86;99724.81;4932141;29;20056;-76
2023/09/17 00:19:13;;;;;;;10.73;8.80;;;;;;;21.84;52.03;99725.19;4933106;29;20208;-75
2023/09/17 00:21:39;;;;;;;11.55;9.70;;;;;;;21.81;52.31;99722.81;4932545;29;20059;-78
2023/09/17 00:24:06;;;;;;;11.50;9.73;;;;;;;21.79;52.22;99716.75;4932638;29;20052;-77
2023/09/17 00:26:33;;;;;;;10.70;9.45;;;;;;;21.77;52.13;99709.88;4932710;29;20126;-75
2023/09/17 00:29:00;;;;;;;13.13;10.65;;;;;;;21.76;52.03;99713.56;4933275;29;20058;-76
2023/09/17 00:31:27;;;;;;;11.70;9.57;;;;;;;21.72;51.94;99716.56;4932916;29;20567;-75
2023/09/17 00:33:54;;;;;;;12.93;10.38;;;;;;;21.70;52.10;99715.03;4931312;29;20127;-79
2023/09/17 00:36:21;;;;;;;13.70;10.55;;;;;;;21.68;51.80;99709.00;4931953;29;20119;-77
2023/09/17 00:38:47;;;;;;;14.50;11.10;;;;;;;21.66;52.05;99702.94;4936508;29;20143;-74
2023/09/17 00:41:14;;;;;;;12.68;10.35;;;;;;;21.64;52.07;99715.69;4936274;29;20130;-74
2023/09/17 00:43:41;;;;;;;17.77;11.10;;;;;;;21.61;52.08;99706.94;4935828;29;20402;-75
2023/09/17 00:46:08;;;;;;;14.57;11.07;;;;;;;21.59;52.40;99711.63;4934645;29;20052;-78
2023/09/17 00:48:35;;;;;;;15.80;9.73;;;;;;;21.58;52.38;99718.00;4935917;29;20060;-76
2023/09/17 00:51:03;;;;;;;12.48;10.00;;;;;;;21.56;52.29;99703.06;4936305;29;20202;-78
2023/09/17 00:53:29;;;;;;;11.18;9.88;;;;;;;21.53;52.50;99698.88;4934655;29;20051;-74
2023/09/17 00:55:56;;;;;;;13.70;10.23;;;;;;;21.52;52.51;99701.75;4936077;29;20115;-77
2023/09/17 00:58:23;;;;;;;12.85;10.43;;;;;;;21.50;52.82;99696.53;4935668;29;20493;-75
2023/09/17 01:00:51;;;;;;;12.02;9.70;;;;;;;21.47;52.69;99687.00;4935456;29;20055;-75
2023/09/17 01:03:18;;;;;;;11.57;10.20;;;;;;;21.46;52.87;99690.66;4934404;29;20621;-77
2023/09/17 01:05:45;;;;;;;15.27;11.25;;;;;;;21.45;52.90;99688.13;4936020;29;20102;-76
2023/09/17 01:08:11;;;;;;;17.08;11.55;;;;;;;21.44;52.76;99686.47;4935863;29;20051;-75
2023/09/17 01:10:41;;;;;;;18.70;12.23;;;;;;;21.38;52.83;99685.25;4935895;29;20055;-77
2023/09/17 01:13:09;;;;;;;14.63;11.43;;;;;;;21.36;52.98;99681.91;4935671;29;20060;-77
2023/09/17 01:15:37;;;;;;;16.52;11.18;;;;;;;21.35;53.36;99686.41;4935847;29;20043;-76
2023/09/17 01:18:05;;;;;;;12.52;11.23;;;;;;;21.33;53.36;99685.75;4935732;29;20103;-76
2023/09/17 01:20:52;;;;;;;20.02;12.10;;;;;;;21.29;53.47;99676.34;4935257;29;20043;-75
2023/09/17 01:23:32;;;;;;;15.23;12.32;;;;;;;21.27;53.56;99672.97;4934246;29;20083;-75
2023/09/17 01:26:12;;;;;;;13.82;12.35;;;;;;;21.25;54.27;99675.00;4935661;29;20595;-75
2023/09/17 01:28:40;;;;;;;14.68;12.27;;;;;;;21.26;53.52;99665.97;4934342;29;20691;-77
2023/09/17 01:31:09;;;;;;;13.50;12.10;;;;;;;21.24;53.56;99672.47;4934881;29;20547;-74
2023/09/17 01:33:36;;;;;;;13.40;11.65;;;;;;;21.21;53.48;99661.09;4935366;29;20288;-74
2023/09/17 01:36:13;;;;;;;15.05;12.35;;;;;;;21.18;54.12;99658.72;4935546;29;20047;-78
2023/09/17 01:38:52;;;;;;;15.73;13.13;;;;;;;21.13;54.01;99661.06;4935505;29;20158;-75
2023/09/17 01:41:19;;;;;;;16.70;12.48;;;;;;;21.15;53.99;99659.03;4933337;29;20556;-79
2023/09/17 01:43:46;;;;;;;13.50;11.88;;;;;;;21.13;54.08;99654.84;4933664;29;20048;-76
2023/09/17 01:46:16;;;;;;;16.02;13.63;;;;;;;21.09;54.24;99652.50;4935405;29;20056;-76
2023/09/17 01:48:45;;;;;;;16.85;13.73;;;;;;;21.06;54.26;99660.84;4935093;29;20062;-78
2023/09/17 01:51:13;;;;;;;15.10;11.98;;;;;;;21.03;54.12;99657.63;4934727;29;20044;-75
2023/09/17 01:53:39;;;;;;;15.27;13.68;;;;;;;21.02;54.48;99664.84;4934819;29;20530;-79
2023/09/17 01:56:06;;;;;;;14.48;12.93;;;;;;;21.00;54.66;99660.66;4934997;29;20057;-77
2023/09/17 01:58:33;;;;;;;19.45;13.93;;;;;;;20.99;54.47;99656.28;4935220;29;20059;-75
2023/09/17 02:01:00;;;;;;;15.93;13.73;;;;;;;20.99;54.76;99656.28;4933520;29;20159;-76
2023/09/17 02:03:28;;;;;;;15.65;12.88;;;;;;;20.96;54.65;99655.59;4934764;29;20059;-76
2023/09/17 02:05:55;;;;;;;16.13;13.82;;;;;;;20.95;54.88;99655.75;4934979;29;20082;-75
2023/09/17 02:08:21;;;;;;;17.25;12.88;;;;;;;20.94;54.72;99657.59;4934865;29;20062;-75
2023/09/17 02:10:48;;;;;;;14.57;12.93;;;;;;;20.93;55.08;99655.91;4934381;29;20044;-80
2023/09/17 02:13:15;;;;;;;15.88;12.65;;;;;;;20.93;55.13;99663.94;4934724;29;20047;-75
2023/09/17 02:15:44;;;;;;;15.30;13.60;;;;;;;20.94;55.23;99660.25;4933507;29;20505;-77
2023/09/17 02:18:10;;;;;;;16.20;14.48;;;;;;;20.95;54.98;99669.13;4934775;29;20056;-77
2023/09/17 02:20:38;;;;;;;17.05;13.15;;;;;;;20.95;55.21;99669.13;4934393;29;20130;-81
2023/09/17 02:23:05;;;;;;;16.60;13.73;;;;;;;20.95;55.31;99677.16;4934244;29;20058;-75
2023/09/17 02:25:31;;;;;;;16.63;14.43;;;;;;;20.96;55.18;99670.81;4934780;29;20385;-78
2023/09/17 02:27:58;;;;;;;17.98;13.50;;;;;;;20.96;55.13;99660.09;4934435;29;20060;-76
2023/09/17 02:30:24;;;;;;;21.80;15.35;;;;;;;20.95;55.49;99661.97;4932985;29;20043;-75
2023/09/17 02:32:51;;;;;;;21.90;15.40;;;;;;;20.96;55.40;99665.47;4933983;29;20058;-74
2023/09/17 02:35:17;;;;;;;19.92;15.70;;;;;;;20.95;55.25;99663.78;4934318;29;20067;-76
2023/09/17 02:37:44;;;;;;;19.30;15.65;;;;;;;20.96;55.44;99665.47;4934284;29;20081;-75
2023/09/17 02:40:11;;;;;;;18.60;15.70;;;;;;;20.96;55.53;99665.47;4932937;29;20560;-75
2023/09/17 02:42:37;;;;;;;20.77;15.75;;;;;;;20.99;54.99;99666.97;4933498;29;20127;-76
2023/09/17 02:45:05;;;;;;;19.05;15.82;;;;;;;20.98;55.12;99673.34;4934298;29;20536;-75
2023/09/17 02:47:33;;;;;;;17.95;16.02;;;;;;;20.98;55.38;99678.69;4934180;29;20131;-77
2023/09/17 02:50:00;;;;;;;19.00;14.50;;;;;;;20.99;55.47;99683.03;4934095;29;20055;-77
2023/09/17 02:52:26;;;;;;;18.70;15.85;;;;;;;20.98;55.30;99670.66;4933323;29;20412;-77
2023/09/17 02:54:56;;;;;;;22.50;16.55;;;;;;;20.96;55.60;99666.31;4934254;29;20059;-78
2023/09/17 02:57:23;;;;;;;22.30;17.70;;;;;;;20.99;55.57;99670.50;4934167;29;20051;-75
2023/09/17 02:59:51;;;;;;;22.83;17.38;;;;;;;20.99;55.48;99661.63;4933567;29;20059;-78
2023/09/17 03:02:18;;;;;;;22.00;17.63;;;;;;;20.98;55.47;99665.31;4933065;29;20058;-79
2023/09/17 03:04:44;;;;;;;23.85;18.50;;;;;;;20.98;55.44;99659.94;4933877;29;20063;-78
2023/09/17 03:07:11;;;;;;;24.73;19.33;;;;;;;20.95;55.39;99659.28;4933799;29;20055;-75
2023/09/17 03:09:38;;;;;;;21.67;18.77;;;;;;;20.93;55.65;99657.78;4933849;29;20094;-77
2023/09/17 03:12:06;;;;;;;23.10;19.05;;;;;;;20.93;55.80;99652.41;4933557;29;20050;-77
2023/09/17 03:14:32;;;;;;;21.20;18.83;;;;;;;20.91;55.75;99649.91;4933315;29;20051;-77
2023/09/17 03:16:59;;;;;;;22.75;17.70;;;;;;;20.92;55.67;99659.59;4933730;29;20051;-78
2023/09/17 03:19:26;;;;;;;22.80;18.80;;;;;;;20.92;55.75;99658.75;4933640;29;20055;-75
2023/09/17 03:21:53;;;;;;;23.02;19.75;;;;;;;20.90;55.70;99653.53;4933339;29;20115;-75
2023/09/17 03:24:19;;;;;;;23.13;19.17;;;;;;;20.89;55.99;99653.72;4933500;29;20058;-77
2023/09/17 03:26:45;;;;;;;24.30;20.05;;;;;;;20.87;55.88;99647.66;4933661;29;20524;-77
2023/09/17 03:29:12;;;;;;;25.80;20.05;;;;;;;20.83;56.15;99647.97;4932444;29;20043;-75
2023/09/17 03:31:41;;;;;;;23.02;19.30;;;;;;;20.82;56.26;99648.13;4933533;29;20094;-75
2023/09/17 03:34:07;;;;;;;25.33;20.25;;;;;;;20.80;56.32;99642.09;4932893;29;20526;-79
2023/09/17 03:36:37;;;;;;;22.75;20.08;;;;;;;20.79;56.39;99643.09;4933516;29;20496;-75
2023/09/17 03:39:06;;;;;;;26.00;20.38;;;;;;;20.77;56.44;99647.75;4933717;29;20079;-75
2023/09/17 03:41:33;;;;;;;25.20;21.10;;;;;;;20.75;56.51;99642.56;4933554;29;20048;-76
2023/09/17 03:43:59;;;;;;;25.60;21.85;;;;;;;20.72;56.29;99640.22;4932902;29;20058;-75
2023/09/17 03:46:26;;;;;;;26.25;20.23;;;;;;;20.70;56.42;99640.34;4933402;29;20060;-79
2023/09/17 03:48:53;;;;;;;24.95;21.75;;;;;;;20.68;56.67;99634.31;4933384;29;20477;-77
2023/09/17 03:51:21;;;;;;;29.50;23.33;;;;;;;20.68;56.69;99638.84;4933488;29;20052;-76
2023/09/17 03:53:47;;;;;;;24.20;21.55;;;;;;;20.67;56.95;99634.50;4932730;29;20055;-76
2023/09/17 03:58:51;;;;;;;26.73;22.00;;;;;;;20.64;56.72;99635.63;4932397;29;20040;-76
2023/09/17 04:01:18;;;;;;;27.33;20.90;;;;;;;20.64;56.54;99638.28;4931994;29;20110;-77
2023/09/17 04:03:45;;;;;;;27.08;21.77;;;;;;;20.61;56.92;99624.41;4932598;29;20047;-75
2023/09/17 04:06:11;;;;;;;27.05;20.92;;;;;;;20.61;56.69;99637.78;4933126;29;20151;-79
2023/09/17 04:08:38;;;;;;;24.27;20.65;;;;;;;20.59;56.92;99632.59;4931940;29;20058;-77
2023/09/17 04:11:04;;;;;;;28.58;21.88;;;;;;;20.57;56.73;99630.06;4933082;29;20135;-77
2023/09/17 04:13:31;;;;;;;24.92;20.98;;;;;;;20.55;56.78;99637.41;4935805;29;20066;-80
2023/09/17 04:15:58;;;;;;;25.00;20.45;;;;;;;20.53;56.87;99634.03;4935461;29;20110;-78
2023/09/17 04:18:24;;;;;;;25.58;21.08;;;;;;;20.52;57.03;99634.22;4935552;29;20055;-79
2023/09/17 04:20:51;;;;;;;25.90;19.90;;;;;;;20.51;57.05;99637.88;4935455;29;20416;-76
2023/09/17 04:23:18;;;;;;;23.73;20.08;;;;;;;20.48;56.79;99638.19;4936416;29;20055;-78
2023/09/17 04:25:45;;;;;;;24.77;19.83;;;;;;;20.46;56.99;99637.50;4934462;29;20051;-76
2023/09/17 04:28:11;;;;;;;25.15;20.85;;;;;;;20.41;56.89;99633.44;4936487;29;20511;-78
2023/09/17 04:30:38;;;;;;;25.10;19.90;;;;;;;20.38;57.10;99624.91;4936545;29;20048;-76
2023/09/17 04:33:04;;;;;;;24.77;20.50;;;;;;;20.36;57.17;99629.56;4936010;29;20052;-78
2023/09/17 04:35:31;;;;;;;23.70;19.20;;;;;;;20.34;57.22;99628.88;4936046;29;20056;-79
2023/09/17 04:37:57;;;;;;;25.50;19.85;;;;;;;20.30;57.29;99631.03;4935064;29;20052;-78
2023/09/17 04:40:28;;;;;;;27.73;20.40;;;;;;;20.28;56.66;99627.66;4936268;29;20074;-77
2023/09/17 04:42:54;;;;;;;22.45;19.05;;;;;;;20.25;57.29;99626.16;4935939;29;20090;-78
2023/09/17 04:45:32;;;;;;;23.80;19.20;;;;;;;20.20;57.71;99624.91;4936152;29;20159;-76
2023/09/17 04:47:59;;;;;;;26.58;18.63;;;;;;;20.21;57.26;99623.91;4936133;29;20130;-76
2023/09/17 04:50:25;;;;;;;24.27;19.63;;;;;;;20.18;57.07;99628.59;4936054;29;20055;-76
2023/09/17 04:52:52;;;;;;;22.75;20.25;;;;;;;20.16;57.21;99619.06;4935800;29;20061;-81
2023/09/17 04:55:19;;;;;;;23.83;21.13;;;;;;;20.13;57.22;99630.03;4935726;29;20511;-77
2023/09/17 04:57:45;;;;;;;26.38;21.95;;;;;;;20.11;57.45;99619.50;4935715;29;20130;-76
2023/09/17 05:00:12;;;;;;;25.08;21.17;;;;;;;20.10;57.67;99619.66;4935582;29;20051;-78
2023/09/17 05:02:39;;;;;;;24.08;20.20;;;;;;;20.09;57.79;99626.00;4935500;29;20139;-79
2023/09/17 05:05:06;;;;;;;24.98;21.65;;;;;;;20.08;58.03;99619.84;4935810;29;20700;-77
2023/09/17 05:07:33;;;;;;;23.30;18.85;;;;;;;20.09;58.04;99620.66;4935825;29;20509;-76
2023/09/17 05:09:59;;;;;;;24.35;20.67;;;;;;;20.10;58.07;99628.53;4935146;29;20054;-77
2023/09/17 05:12:26;;;;;;;24.95;20.85;;;;;;;20.12;57.90;99626.56;4935664;29;20420;-77
2023/09/17 05:14:52;;;;;;;26.35;21.60;;;;;;;20.14;58.33;99629.03;4935841;29;20052;-77
2023/09/17 05:17:19;;;;;;;28.30;21.85;;;;;;;20.14;57.94;99627.22;4934792;29;20052;-76
2023/09/17 05:19:45;;;;;;;26.15;22.27;;;;;;;20.14;58.31;99627.22;4933922;29;20047;-78
2023/09/17 05:22:12;;;;;;;25.33;22.23;;;;;;;20.14;58.39;99626.38;4935175;29;20472;-83
2023/09/17 05:24:38;;;;;;;26.80;21.80;;;;;;;20.14;58.54;99624.53;4934639;29;20060;-79
2023/09/17 05:27:05;;;;;;;31.00;23.38;;;;;;;20.14;58.52;99629.91;4935674;29;20130;-77
2023/09/17 05:29:31;;;;;;;27.13;23.20;;;;;;;20.15;58.64;99628.91;4935547;29;20489;-79
2023/09/17 05:31:58;;;;;;;30.48;24.05;;;;;;;20.17;58.76;99623.41;4934998;29;20060;-76
2023/09/17 05:34:24;;;;;;;27.83;24.05;;;;;;;20.19;58.50;99616.09;4935583;29;20052;-78
2023/09/17 05:36:51;;;;;;;27.48;23.38;;;;;;;20.21;58.63;99619.44;4935490;29;20112;-77
2023/09/17 05:39:17;;;;;;;26.85;22.70;;;;;;;20.23;58.67;99611.25;4935448;29;20055;-77
2023/09/17 05:41:44;;;;;;;26.92;22.35;;;;;;;20.24;58.77;99612.94;4935009;29;20119;-77
2023/09/17 05:44:11;;;;;;;30.52;24.00;;;;;;;20.25;58.65;99611.94;4935038;29;20481;-78
2023/09/17 05:46:37;;;;;;;34.40;24.60;;;;;;;20.26;58.78;99609.09;4935270;29;20047;-77
2023/09/17 05:49:04;;;;;;;30.20;24.95;;;;;;;20.27;58.64;99609.97;4935272;29;20056;-79
2023/09/17 05:51:30;;;;;;;30.05;24.77;;;;;;;20.27;58.82;99607.28;4934579;29;20091;-76
2023/09/17 05:53:57;;;;;;;28.42;23.98;;;;;;;20.27;58.73;99609.97;4934870;29;20126;-76
2023/09/17 05:56:24;;;;;;;29.83;25.20;;;;;;;20.27;58.67;99612.63;4935329;29;20052;-76
2023/09/17 05:58:50;;;;;;;30.77;24.52;;;;;;;20.27;58.94;99605.47;4935102;29;20083;-79
2023/09/17 06:01:17;;;;;;;29.23;23.90;;;;;;;20.28;59.18;99608.97;4934573;29;20047;-76
2023/09/17 06:03:44;;;;;;;30.27;24.98;;;;;;;20.29;59.05;99605.28;4934634;29;20081;-77
2023/09/17 06:06:11;;;;;;;32.20;25.73;;;;;;;20.30;59.00;99609.66;4934780;29;20118;-80
2023/09/17 06:08:37;;;;;;;30.30;24.55;;;;;;;20.29;59.10;99599.94;4935028;29;20051;-77
2023/09/17 06:11:04;;;;;;;28.83;24.75;;;;;;;20.29;59.04;99605.28;4934401;29;20081;-78
2023/09/17 06:13:31;;;;;;;31.13;25.52;;;;;;;20.29;59.31;99607.97;4933364;29;20086;-77
2023/09/17 06:15:57;;;;;;;31.23;25.42;;;;;;;20.28;59.32;99607.13;4934758;29;20114;-76
2023/09/17 06:18:24;;;;;;;31.92;26.20;;;;;;;20.28;59.11;99595.59;4934652;29;20056;-78
2023/09/17 06:20:50;;;;;;;30.88;25.55;;;;;;;20.28;59.46;99598.25;4934506;29;20058;-78
2023/09/17 06:23:17;;;;;;;29.55;25.10;;;;;;;20.28;59.24;99598.25;4933910;29;20134;-78
2023/09/17 06:25:43;;;;;;;35.63;26.02;;;;;;;20.28;59.36;99598.25;4934741;29;20047;-76
2023/09/17 06:28:10;;;;;;;35.92;26.85;;;;;;;20.28;59.47;99592.91;4934135;29;20052;-79
2023/09/17 06:30:37;;;;;;;31.83;24.73;;;;;;;20.29;59.50;99598.13;4934094;29;20079;-76
2023/09/17 06:33:03;;;;;;;38.13;26.50;;;;;;;20.30;59.46;99590.94;4933927;29;20075;-77
2023/09/17 06:35:30;;;;;;;30.58;25.67;;;;;;;20.31;59.76;99597.97;4933406;29;20058;-76
2023/09/17 06:37:57;;;;;;;32.38;25.65;;;;;;;20.32;59.56;99599.63;4933260;29;20060;-77
2023/09/17 06:40:24;;;;;;;32.63;25.98;;;;;;;20.32;59.64;99599.63;4934283;29;20138;-75
2023/09/17 06:42:50;;;;;;;30.80;25.83;;;;;;;20.32;59.53;99602.31;4933682;29;20055;-76
2023/09/17 06:45:18;;;;;;;33.42;26.63;;;;;;;20.31;59.71;99600.63;4933970;29;20055;-77
2023/09/17 06:47:45;;;;;;;34.05;25.88;;;;;;;20.28;59.76;99588.44;4934101;29;20138;-76
2023/09/17 06:50:13;;;;;;;36.13;28.00;;;;;;;20.27;59.81;99591.25;4933960;29;20054;-78
2023/09/17 06:52:40;;;;;;;34.85;28.10;;;;;;;20.26;60.37;99587.72;4933620;29;20055;-78
2023/09/17 06:55:06;;;;;;;33.38;27.38;;;;;;;20.28;60.37;99592.91;4932893;29;20066;-79
2023/09/17 06:57:33;;;;;;;36.17;28.33;;;;;;;20.28;60.30;99592.91;4932610;29;20055;-77
2023/09/17 06:59:59;;;;;;;34.20;27.10;;;;;;;20.30;60.31;99590.94;4933948;29;20051;-76
2023/09/17 07:02:26;;;;;;;37.15;29.17;;;;;;;20.32;60.42;99583.59;4933576;29;20566;-76
2023/09/17 07:04:53;;;;;;;32.97;27.05;;;;;;;20.35;60.38;99583.28;4933426;29;20788;-78
2023/09/17 07:07:20;;;;;;;35.92;27.13;;;;;;;20.38;60.74;99585.66;4934129;29;20052;-76
2023/09/17 07:09:46;;;;;;;33.80;27.23;;;;;;;20.41;60.59;99580.00;4933758;29;20051;-76
2023/09/17 07:12:13;;;;;;;34.55;27.27;;;;;;;20.47;60.89;99577.69;4932272;29;20818;-82
2023/09/17 07:14:41;;;;;;;28.85;24.35;;;;;;;20.51;60.93;99576.38;4933247;29;20126;-77
2023/09/17 07:17:07;;;;;;;31.83;25.75;;;;;;;20.57;61.17;99581.09;4933606;29;20122;-78
2023/09/17 07:19:34;;;;;;;30.73;24.88;;;;;;;20.62;60.85;99584.16;4933721;29;20052;-76
2023/09/17 07:22:01;;;;;;;31.75;25.42;;;;;;;20.67;61.18;99573.81;4933620;29;20047;-76
2023/09/17 07:24:27;;;;;;;31.80;24.88;;;;;;;20.75;61.24;99591.72;4933308;29;20508;-76
2023/09/17 07:26:54;;;;;;;32.40;24.38;;;;;;;20.84;61.09;99587.28;4933673;29;20735;-77
2023/09/17 07:29:20;;;;;;;27.63;23.85;;;;;;;20.91;61.39;99585.69;4933709;29;20052;-76
2023/09/17 07:31:47;;;;;;;30.85;24.92;;;;;;;20.98;61.12;99585.88;4933418;29;20054;-75
2023/09/17 07:34:14;;;;;;;28.55;24.13;;;;;;;21.03;60.87;99580.88;4933292;29;20055;-75
2023/09/17 07:36:40;;;;;;;28.60;23.25;;;;;;;21.09;60.96;99574.88;4933412;29;20059;-77
2023/09/17 07:39:09;;;;;;;27.90;22.80;;;;;;;21.15;60.92;99586.78;4932344;29;20051;-75
2023/09/17 07:41:35;;;;;;;26.20;22.27;;;;;;;21.19;60.71;99585.47;4933382;29;20091;-76
2023/09/17 07:44:02;;;;;;;24.63;21.13;;;;;;;21.24;60.69;99581.47;4933462;29;20059;-75
2023/09/17 07:46:29;;;;;;;25.35;22.15;;;;;;;21.28;60.97;99577.47;4934960;29;20562;-76
2023/09/17 07:48:55;;;;;;;25.52;22.10;;;;;;;21.30;61.15;99580.84;4937694;29;20063;-76
2023/09/17 07:51:22;;;;;;;28.40;21.20;;;;;;;21.34;60.96;99582.16;4937381;29;20055;-75
2023/09/17 07:53:48;;;;;;;25.80;20.30;;;;;;;21.39;61.34;99579.84;4937148;29;20134;-75
2023/09/17 07:56:15;;;;;;;23.20;20.00;;;;;;;21.45;61.38;99581.88;4935595;29;20055;-76
2023/09/17 07:58:44;;;;;;;25.77;19.90;;;;;;;21.53;61.03;99574.88;4937163;29;20732;-75
2023/09/17 08:01:11;;;;;;;24.08;20.17;;;;;;;21.57;61.25;99576.22;4936110;29;20051;-76
2023/09/17 08:03:38;;;;;;;22.90;19.08;;;;;;;21.64;61.17;99576.41;4935593;29;20048;-76
2023/09/17 08:06:05;;;;;;;22.25;19.00;;;;;;;21.68;61.41;99573.22;4936719;29;20119;-75
2023/09/17 08:08:32;;;;;;;21.95;17.27;;;;;;;21.74;61.17;99575.28;4937021;29;20183;-75
2023/09/17 08:10:59;;;;;;;19.58;16.20;;;;;;;21.80;60.90;99586.31;4936832;29;20091;-75
2023/09/17 08:13:25;;;;;;;27.25;17.15;;;;;;;21.83;60.99;99577.97;4936678;29;20090;-75
2023/09/17 08:15:52;;;;;;;18.05;15.93;;;;;;;21.86;61.03;99578.47;4936640;29;20052;-76
2023/09/17 08:18:18;;;;;;;19.33;16.00;;;;;;;21.89;61.05;99577.28;4936841;29;20051;-75
2023/09/17 08:20:45;;;;;;;18.15;14.80;;;;;;;21.91;60.91;99572.63;4936901;29;20051;-76
2023/09/17 08:23:12;;;;;;;16.52;14.48;;;;;;;21.95;61.30;99567.75;4936528;29;20130;-77
2023/09/17 08:25:39;;;;;;;16.60;14.43;;;;;;;21.99;61.07;99575.28;4936454;29;20138;-76
2023/09/17 08:28:06;;;;;;;18.15;15.13;;;;;;;22.04;61.20;99571.25;4927869;29;20058;-75
2023/09/17 08:30:38;;;;;;;20.48;14.15;;;;;;;22.11;61.04;99572.28;4939209;28;20058;-77
2023/09/17 08:33:09;;;;;;;17.02;13.77;;;;;;;22.15;61.55;99573.63;4936521;29;20118;-75
2023/09/17 08:35:49;;;;;;;18.92;14.38;;;;;;;22.22;61.42;99582.66;4935903;29;20473;-77
2023/09/17 08:38:24;;;;;;;16.70;14.68;;;;;;;22.31;61.60;99582.66;5133726;23;20050;-79
2023/09/17 08:40:56;;;;;;;17.33;13.63;;;;;;;22.40;62.06;99578.97;4935792;29;20142;-80
2023/09/17 08:43:26;;;;;;;16.60;13.63;;;;;;;22.51;62.22;99575.91;4935206;29;20048;-78
2023/09/17 08:45:59;;;;;;;17.13;12.77;;;;;;;22.63;62.32;99576.44;4935920;29;20083;-74
2023/09/17 08:48:30;;;;;;;14.13;12.48;;;;;;;22.77;62.21;99566.84;4934444;29;20098;-75
2023/09/17 08:51:00;;;;;;;14.18;12.07;;;;;;;22.93;62.35;99577.69;4936382;29;20056;-76
2023/09/17 08:53:40;;;;;;;15.73;12.65;;;;;;;23.06;62.50;99577.16;4935762;29;20052;-75
2023/09/17 08:56:19;;;;;;;13.80;12.02;;;;;;;23.25;62.16;99574.03;4935369;29;20131;-75
2023/09/17 08:58:59;;;;;;;13.30;11.95;;;;;;;23.41;61.66;99572.31;4933650;29;20059;-75
2023/09/17 09:01:36;;;;;;;11.95;10.27;;;;;;;23.58;61.92;99566.84;4932874;29;20059;-75
2023/09/17 09:04:09;;;;;;;11.88;10.05;;;;;;;23.73;61.10;99565.06;4933688;29;20047;-75
2023/09/17 09:06:47;;;;;;;10.63;9.52;;;;;;;23.87;61.27;99565.31;4935688;29;20055;-77
2023/09/17 09:09:42;;;;;;;11.18;8.82;;;;;;;24.06;60.46;99561.28;4932135;29;20094;-77
2023/09/17 09:12:08;;;;;;;12.32;8.50;;;;;;;24.19;60.13;99571.47;4932128;29;20404;-75
2023/09/17 09:14:40;;;;;;;10.85;8.07;;;;;;;24.28;59.94;99562.31;4934949;29;20044;-76
2023/09/17 09:17:07;;;;;;;9.93;8.60;;;;;;;24.40;59.81;99562.69;4927689;29;20044;-76
2023/09/17 09:19:35;;;;;;;9.80;8.77;;;;;;;24.52;59.95;99568.44;4934910;29;20619;-76
2023/09/17 09:22:04;;;;;;;9.07;8.15;;;;;;;24.63;60.01;99569.84;4934535;29;20496;-77
2023/09/17 09:24:48;;;;;;;21.23;10.82;;;;;;;24.73;59.68;99572.28;4934936;29;20574;-77
2023/09/17 09:27:15;;;;;;;10.13;7.85;;;;;;;24.89;59.09;99568.59;4935044;29;20496;-76
2023/09/17 09:29:43;;;;;;;8.40;7.50;;;;;;;25.02;58.89;99559.88;4934641;29;20078;-75
2023/09/17 09:32:11;;;;;;;11.32;7.65;;;;;;;25.14;58.88;99559.38;4934358;29;20055;-77
2023/09/17 09:34:43;;;;;;;8.00;7.05;;;;;;;25.24;58.87;99558.06;4933329;29;20560;-77
2023/09/17 09:37:23;;;;;;;8.23;7.20;;;;;;;25.37;58.23;99551.16;4927143;29;20044;-76
2023/09/17 09:39:58;;;;;;;8.30;6.78;;;;;;;25.52;58.41;99550.28;4934899;29;20621;-76
2023/09/17 09:42:31;;;;;;;6.63;5.93;;;;;;;25.64;58.44;99548.75;4933047;29;20099;-75
2023/09/17 09:45:00;;;;;;;7.65;6.75;;;;;;;25.77;59.46;99550.78;4935137;29;20052;-77
2023/09/17 09:47:38;;;;;;;7.57;5.75;;;;;;;25.87;nan;99553.16;4935234;29;20393;-76
2023/09/17 09:50:05;;;;;;;6.32;5.50;;;;;;;26.03;59.01;99546.66;4934324;29;20055;-76
2023/09/17 09:52:34;;;;;;;4.95;4.22;;;;;;;26.17;59.30;99542.22;4932594;29;20047;-77
2023/09/17 09:55:00;;;;;;;4.72;4.30;;;;;;;26.32;58.27;99544.00;4934435;29;20059;-78
2023/09/17 09:57:27;;;;;;;4.97;4.57;;;;;;;26.47;57.45;99536.63;4934782;29;20083;-75
2023/09/17 09:59:54;;;;;;;5.47;4.72;;;;;;;26.61;57.26;99539.41;4934495;29;20203;-76
2023/09/17 10:02:21;;;;;;;5.03;4.00;;;;;;;26.74;57.43;99541.34;4933712;29;20047;-75
2023/09/17 10:04:48;;;;;;;4.80;4.35;;;;;;;26.86;56.58;99539.75;4934773;29;20056;-76
2023/09/17 10:07:16;;;;;;;4.68;4.28;;;;;;;26.97;56.25;99542.94;4934627;29;20127;-75
2023/09/17 10:09:43;;;;;;;4.95;4.43;;;;;;;27.06;56.29;99539.88;4934107;29;20055;-77
2023/09/17 10:12:09;;;;;;;7.15;4.75;;;;;;;27.16;56.03;99535.94;4934419;29;20079;-74
2023/09/17 10:14:37;;;;;;;4.82;4.32;;;;;;;27.23;56.11;99535.97;4934309;29;20094;-76
2023/09/17 10:17:08;;;;;;;5.80;3.92;;;;;;;27.27;55.16;99529.97;4934496;29;20055;-77
2023/09/17 10:19:35;;;;;;;4.60;4.20;;;;;;;27.34;54.97;99535.38;4932254;29;20115;-75
2023/09/17 10:22:07;;;;;;;4.45;4.00;;;;;;;27.39;54.36;99532.91;4933781;29;20134;-75
2023/09/17 10:24:36;;;;;;;4.22;3.58;;;;;;;27.48;53.65;99527.31;4934119;29;20073;-77
2023/09/17 10:27:05;;;;;;;6.60;3.60;;;;;;;27.56;54.34;99532.53;4934311;29;20055;-75
2023/09/17 10:29:34;;;;;;;4.80;3.97;;;;;;;27.64;54.14;99523.41;4934367;29;20054;-76
2023/09/17 10:32:02;;;;;;;4.05;3.58;;;;;;;27.71;54.27;99526.97;4933651;29;20416;-74
2023/09/17 10:34:32;;;;;;;4.20;3.53;;;;;;;27.79;53.52;99525.91;4930624;29;20067;-77
2023/09/17 10:37:03;;;;;;;3.63;3.33;;;;;;;27.87;52.69;99516.75;4933897;29;20056;-77
2023/09/17 10:39:31;;;;;;;5.03;3.35;;;;;;;27.91;52.19;99518.84;4934104;29;20051;-75
2023/09/17 10:42:01;;;;;;;3.80;3.50;;;;;;;27.94;52.13;99521.16;4932836;29;20497;-76
2023/09/17 10:44:29;;;;;;;3.85;3.45;;;;;;;27.94;52.03;99525.72;4933516;29;20512;-75
2023/09/17 10:46:59;;;;;;;6.32;4.10;;;;;;;27.95;51.36;99525.50;4932686;29;20052;-75
2023/09/17 10:49:27;;;;;;;3.67;3.38;;;;;;;27.98;52.56;99524.25;4933482;29;20059;-75
2023/09/17 10:51:55;;;;;;;4.03;3.63;;;;;;;28.04;54.62;99518.03;4933612;29;20191;-77
2023/09/17 10:54:21;;;;;;;4.13;3.72;;;;;;;28.16;53.43;99512.81;4933576;29;20485;-75
2023/09/17 10:56:49;;;;;;;4.85;3.90;;;;;;;28.29;52.96;99519.28;4932758;29;20106;-77
2023/09/17 10:59:18;;;;;;;5.20;3.72;;;;;;;28.46;52.92;99516.94;4933504;29;20075;-74
2023/09/17 11:01:47;;;;;;;3.88;3.58;;;;;;;28.65;53.45;99517.94;4933165;29;20656;-76
2023/09/17 11:04:16;;;;;;;3.72;3.42;;;;;;;28.89;53.23;99523.69;4932909;29;20051;-75
2023/09/17 11:06:45;;;;;;;4.72;3.80;;;;;;;29.20;54.29;99516.72;4933820;29;20127;-76
2023/09/17 11:09:13;;;;;;;3.92;3.58;;;;;;;29.62;54.23;99521.69;4933567;29;20048;-76
2023/09/17 11:11:41;;;;;;;4.32;3.47;;;;;;;30.16;54.60;99526.72;4933363;29;20059;-75
2023/09/17 11:14:08;;;;;;;3.45;3.15;;;;;;;30.78;53.55;99516.91;4933156;29;20063;-77
2023/09/17 11:16:36;;;;;;;3.97;3.58;;;;;;;31.50;51.99;99514.50;4933816;29;20047;-76
2023/09/17 11:19:19;;;;;;;3.00;2.78;;;;;;;32.22;51.24;99515.44;4933296;29;20051;-75
2023/09/17 11:22:06;;;;;;;3.67;3.08;;;;;;;33.02;47.12;99522.34;4933104;29;20135;-75
2023/09/17 11:24:33;;;;;;;4.28;3.05;;;;;;;33.77;47.41;99521.50;4932858;29;20499;-75
2023/09/17 11:27:04;;;;;;;3.05;2.85;;;;;;;34.33;45.86;99526.19;4933359;29;20111;-75
2023/09/17 11:29:42;;;;;;;3.38;2.58;;;;;;;34.75;43.72;99521.31;4933749;29;20083;-75